sensor_id;sensor_type;location;lat;lon;timestamp;P1;durP1;ratioP1;P2;durP2;ratioP2
66593;SDS011;53450;42.584;23.366;2022-08-20T00:00:39;17.95;;;6.63;;
66593;SDS011;53450;42.584;23.366;2022-08-20T00:03:15;12.38;;;6.40;;
66593;SDS011;53450;42.584;23.366;2022-08-20T00:05:47;8.73;;;6.32;;
66593;SDS011;53450;42.584;23.366;2022-08-20T00:08:16;15.25;;;6.57;;
66593;SDS011;53450;42.584;23.366;2022-08-20T00:10:43;11.68;;;6.28;;
66593;SDS011;53450;42.584;23.366;2022-08-20T00:13:40;13.10;;;6.50;;
66593;SDS011;53450;42.584;23.366;2022-08-20T00:16:08;17.92;;;6.85;;
66593;SDS011;53450;42.584;23.366;2022-08-20T00:18:35;15.30;;;6.53;;
66593;SDS011;53450;42.584;23.366;2022-08-20T00:21:03;10.45;;;6.75;;
66593;SDS011;53450;42.584;23.366;2022-08-20T00:23:31;10.50;;;6.43;;
66593;SDS011;53450;42.584;23.366;2022-08-20T00:25:57;11.48;;;6.40;;
66593;SDS011;53450;42.584;23.366;2022-08-20T00:28:22;15.95;;;6.68;;
66593;SDS011;53450;42.584;23.366;2022-08-20T00:30:48;9.38;;;6.38;;
66593;SDS011;53450;42.584;23.366;2022-08-20T00:33:16;10.30;;;6.93;;
66593;SDS011;53450;42.584;23.366;2022-08-20T00:35:46;10.82;;;7.15;;
66593;SDS011;53450;42.584;23.366;2022-08-20T00:38:13;18.17;;;6.88;;
66593;SDS011;53450;42.584;23.366;2022-08-20T00:40:40;8.25;;;6.70;;
66593;SDS011;53450;42.584;23.366;2022-08-20T00:46:00;15.00;;;7.20;;
66593;SDS011;53450;42.584;23.366;2022-08-20T00:48:29;21.25;;;7.38;;
66593;SDS011;53450;42.584;23.366;2022-08-20T00:51:00;12.77;;;6.90;;
66593;SDS011;53450;42.584;23.366;2022-08-20T00:53:31;13.30;;;7.40;;
66593;SDS011;53450;42.584;23.366;2022-08-20T00:55:58;11.75;;;7.45;;
66593;SDS011;53450;42.584;23.366;2022-08-20T00:58:25;11.93;;;7.03;;
66593;SDS011;53450;42.584;23.366;2022-08-20T01:00:52;17.27;;;7.88;;
66593;SDS011;53450;42.584;23.366;2022-08-20T01:03:19;13.85;;;7.22;;
66593;SDS011;53450;42.584;23.366;2022-08-20T01:05:46;14.85;;;6.85;;
66593;SDS011;53450;42.584;23.366;2022-08-20T01:08:13;11.80;;;7.43;;
66593;SDS011;53450;42.584;23.366;2022-08-20T01:10:42;15.13;;;6.88;;
66593;SDS011;53450;42.584;23.366;2022-08-20T01:13:11;11.38;;;6.55;;
66593;SDS011;53450;42.584;23.366;2022-08-20T01:15:42;10.80;;;6.65;;
66593;SDS011;53450;42.584;23.366;2022-08-20T01:18:14;10.40;;;6.80;;
66593;SDS011;53450;42.584;23.366;2022-08-20T01:20:46;10.65;;;6.70;;
66593;SDS011;53450;42.584;23.366;2022-08-20T01:28:42;21.42;;;7.07;;
66593;SDS011;53450;42.584;23.366;2022-08-20T01:31:10;11.52;;;7.28;;
66593;SDS011;53450;42.584;23.366;2022-08-20T01:33:39;12.60;;;7.40;;
66593;SDS011;53450;42.584;23.366;2022-08-20T01:36:05;12.07;;;7.32;;
66593;SDS011;53450;42.584;23.366;2022-08-20T01:38:32;17.73;;;7.28;;
66593;SDS011;53450;42.584;23.366;2022-08-20T01:43:49;11.00;;;6.78;;
66593;SDS011;53450;42.584;23.366;2022-08-20T01:46:21;15.23;;;7.57;;
66593;SDS011;53450;42.584;23.366;2022-08-20T01:49:06;14.25;;;7.30;;
66593;SDS011;53450;42.584;23.366;2022-08-20T01:51:35;14.23;;;7.82;;
66593;SDS011;53450;42.584;23.366;2022-08-20T01:54:00;12.52;;;7.15;;
66593;SDS011;53450;42.584;23.366;2022-08-20T01:56:27;17.35;;;7.75;;
66593;SDS011;53450;42.584;23.366;2022-08-20T01:58:55;13.38;;;7.00;;
66593;SDS011;53450;42.584;23.366;2022-08-20T02:01:27;16.90;;;7.47;;
66593;SDS011;53450;42.584;23.366;2022-08-20T02:03:55;10.90;;;7.28;;
66593;SDS011;53450;42.584;23.366;2022-08-20T02:06:22;16.80;;;7.10;;
66593;SDS011;53450;42.584;23.366;2022-08-20T02:08:50;10.18;;;6.32;;
66593;SDS011;53450;42.584;23.366;2022-08-20T02:11:20;8.77;;;6.90;;
66593;SDS011;53450;42.584;23.366;2022-08-20T02:13:47;9.95;;;7.13;;
66593;SDS011;53450;42.584;23.366;2022-08-20T02:16:27;9.52;;;6.60;;
66593;SDS011;53450;42.584;23.366;2022-08-20T02:19:23;14.05;;;7.07;;
66593;SDS011;53450;42.584;23.366;2022-08-20T02:22:03;18.03;;;7.00;;
66593;SDS011;53450;42.584;23.366;2022-08-20T02:24:40;11.23;;;7.03;;
66593;SDS011;53450;42.584;23.366;2022-08-20T02:27:07;13.82;;;7.03;;
66593;SDS011;53450;42.584;23.366;2022-08-20T02:29:32;11.13;;;6.82;;
66593;SDS011;53450;42.584;23.366;2022-08-20T02:31:58;15.95;;;7.18;;
66593;SDS011;53450;42.584;23.366;2022-08-20T02:34:24;16.25;;;6.75;;
66593;SDS011;53450;42.584;23.366;2022-08-20T02:36:50;14.93;;;7.68;;
66593;SDS011;53450;42.584;23.366;2022-08-20T02:39:16;17.38;;;6.72;;
66593;SDS011;53450;42.584;23.366;2022-08-20T02:41:42;12.80;;;6.80;;
66593;SDS011;53450;42.584;23.366;2022-08-20T02:44:07;11.73;;;7.38;;
66593;SDS011;53450;42.584;23.366;2022-08-20T02:46:34;15.20;;;6.47;;
66593;SDS011;53450;42.584;23.366;2022-08-20T02:49:00;20.40;;;7.00;;
66593;SDS011;53450;42.584;23.366;2022-08-20T02:51:25;15.38;;;6.95;;
66593;SDS011;53450;42.584;23.366;2022-08-20T02:53:52;15.77;;;6.82;;
66593;SDS011;53450;42.584;23.366;2022-08-20T02:56:17;13.57;;;6.85;;
66593;SDS011;53450;42.584;23.366;2022-08-20T02:58:44;18.52;;;7.00;;
66593;SDS011;53450;42.584;23.366;2022-08-20T03:01:11;9.48;;;7.13;;
66593;SDS011;53450;42.584;23.366;2022-08-20T03:03:39;19.50;;;7.38;;
66593;SDS011;53450;42.584;23.366;2022-08-20T03:06:07;12.20;;;6.93;;
66593;SDS011;53450;42.584;23.366;2022-08-20T03:08:34;15.70;;;7.25;;
66593;SDS011;53450;42.584;23.366;2022-08-20T03:11:00;13.35;;;6.82;;
66593;SDS011;53450;42.584;23.366;2022-08-20T03:13:26;16.77;;;6.53;;
66593;SDS011;53450;42.584;23.366;2022-08-20T03:15:53;13.48;;;6.75;;
66593;SDS011;53450;42.584;23.366;2022-08-20T03:18:21;17.90;;;7.10;;
66593;SDS011;53450;42.584;23.366;2022-08-20T03:20:48;10.93;;;7.10;;
66593;SDS011;53450;42.584;23.366;2022-08-20T03:23:15;11.02;;;6.82;;
66593;SDS011;53450;42.584;23.366;2022-08-20T03:26:08;8.68;;;7.05;;
66593;SDS011;53450;42.584;23.366;2022-08-20T03:28:35;16.50;;;7.28;;
66593;SDS011;53450;42.584;23.366;2022-08-20T03:31:01;11.75;;;7.07;;
66593;SDS011;53450;42.584;23.366;2022-08-20T03:33:28;9.55;;;6.53;;
66593;SDS011;53450;42.584;23.366;2022-08-20T03:35:55;12.52;;;7.30;;
66593;SDS011;53450;42.584;23.366;2022-08-20T03:38:21;14.15;;;7.57;;
66593;SDS011;53450;42.584;23.366;2022-08-20T03:40:48;19.33;;;6.78;;
66593;SDS011;53450;42.584;23.366;2022-08-20T03:43:14;13.35;;;7.10;;
66593;SDS011;53450;42.584;23.366;2022-08-20T03:45:40;9.50;;;7.28;;
66593;SDS011;53450;42.584;23.366;2022-08-20T03:48:08;16.30;;;7.30;;
66593;SDS011;53450;42.584;23.366;2022-08-20T03:50:36;13.55;;;7.05;;
66593;SDS011;53450;42.584;23.366;2022-08-20T03:53:03;13.65;;;7.68;;
66593;SDS011;53450;42.584;23.366;2022-08-20T03:55:29;18.58;;;7.88;;
66593;SDS011;53450;42.584;23.366;2022-08-20T03:57:57;17.35;;;7.40;;
66593;SDS011;53450;42.584;23.366;2022-08-20T04:00:32;11.82;;;7.13;;
66593;SDS011;53450;42.584;23.366;2022-08-20T04:03:02;12.93;;;7.57;;
66593;SDS011;53450;42.584;23.366;2022-08-20T04:05:29;16.23;;;7.90;;
66593;SDS011;53450;42.584;23.366;2022-08-20T04:07:56;19.40;;;7.80;;
66593;SDS011;53450;42.584;23.366;2022-08-20T04:10:23;14.27;;;7.70;;
66593;SDS011;53450;42.584;23.366;2022-08-20T04:12:49;12.63;;;7.05;;
66593;SDS011;53450;42.584;23.366;2022-08-20T04:15:15;11.02;;;7.35;;
66593;SDS011;53450;42.584;23.366;2022-08-20T04:17:43;13.68;;;7.88;;
66593;SDS011;53450;42.584;23.366;2022-08-20T04:20:12;13.18;;;8.02;;
66593;SDS011;53450;42.584;23.366;2022-08-20T04:22:42;12.48;;;7.70;;
66593;SDS011;53450;42.584;23.366;2022-08-20T04:25:08;17.83;;;7.13;;
66593;SDS011;53450;42.584;23.366;2022-08-20T04:27:37;11.90;;;7.82;;
66593;SDS011;53450;42.584;23.366;2022-08-20T04:30:04;16.00;;;7.90;;
66593;SDS011;53450;42.584;23.366;2022-08-20T04:32:32;12.98;;;7.57;;
66593;SDS011;53450;42.584;23.366;2022-08-20T04:35:02;18.02;;;9.38;;
66593;SDS011;53450;42.584;23.366;2022-08-20T04:37:30;23.00;;;8.15;;
66593;SDS011;53450;42.584;23.366;2022-08-20T04:39:56;24.48;;;11.02;;
66593;SDS011;53450;42.584;23.366;2022-08-20T04:42:40;22.60;;;8.38;;
66593;SDS011;53450;42.584;23.366;2022-08-20T04:45:06;18.23;;;8.25;;
66593;SDS011;53450;42.584;23.366;2022-08-20T04:47:32;13.90;;;8.40;;
66593;SDS011;53450;42.584;23.366;2022-08-20T04:49:58;15.60;;;10.23;;
66593;SDS011;53450;42.584;23.366;2022-08-20T04:52:24;14.63;;;7.95;;
66593;SDS011;53450;42.584;23.366;2022-08-20T04:54:51;12.57;;;7.75;;
66593;SDS011;53450;42.584;23.366;2022-08-20T04:57:23;23.15;;;7.50;;
66593;SDS011;53450;42.584;23.366;2022-08-20T04:59:51;12.02;;;7.65;;
66593;SDS011;53450;42.584;23.366;2022-08-20T05:02:18;13.05;;;8.40;;
66593;SDS011;53450;42.584;23.366;2022-08-20T05:04:45;14.10;;;7.95;;
66593;SDS011;53450;42.584;23.366;2022-08-20T05:07:12;14.85;;;7.40;;
66593;SDS011;53450;42.584;23.366;2022-08-20T05:09:39;12.05;;;7.82;;
66593;SDS011;53450;42.584;23.366;2022-08-20T05:12:05;12.15;;;7.57;;
66593;SDS011;53450;42.584;23.366;2022-08-20T05:14:31;17.40;;;8.68;;
66593;SDS011;53450;42.584;23.366;2022-08-20T05:17:00;19.05;;;7.82;;
66593;SDS011;53450;42.584;23.366;2022-08-20T05:19:29;17.63;;;7.47;;
66593;SDS011;53450;42.584;23.366;2022-08-20T05:21:55;12.13;;;8.00;;
66593;SDS011;53450;42.584;23.366;2022-08-20T05:24:22;12.13;;;7.72;;
66593;SDS011;53450;42.584;23.366;2022-08-20T05:27:16;17.98;;;8.10;;
66593;SDS011;53450;42.584;23.366;2022-08-20T05:29:43;13.25;;;7.15;;
66593;SDS011;53450;42.584;23.366;2022-08-20T05:32:08;11.90;;;7.47;;
66593;SDS011;53450;42.584;23.366;2022-08-20T05:34:35;24.83;;;7.60;;
66593;SDS011;53450;42.584;23.366;2022-08-20T05:37:01;10.55;;;7.00;;
66593;SDS011;53450;42.584;23.366;2022-08-20T05:39:28;12.35;;;7.78;;
66593;SDS011;53450;42.584;23.366;2022-08-20T05:41:54;11.93;;;7.72;;
66593;SDS011;53450;42.584;23.366;2022-08-20T05:44:20;13.02;;;7.78;;
66593;SDS011;53450;42.584;23.366;2022-08-20T05:46:46;24.65;;;8.63;;
66593;SDS011;53450;42.584;23.366;2022-08-20T05:49:13;9.63;;;7.03;;
66593;SDS011;53450;42.584;23.366;2022-08-20T05:51:43;15.07;;;7.68;;
66593;SDS011;53450;42.584;23.366;2022-08-20T05:54:09;17.13;;;7.80;;
66593;SDS011;53450;42.584;23.366;2022-08-20T05:56:38;12.02;;;8.02;;
66593;SDS011;53450;42.584;23.366;2022-08-20T05:59:05;9.07;;;7.22;;
66593;SDS011;53450;42.584;23.366;2022-08-20T06:01:33;12.25;;;7.47;;
66593;SDS011;53450;42.584;23.366;2022-08-20T06:04:00;10.60;;;7.25;;
66593;SDS011;53450;42.584;23.366;2022-08-20T06:06:44;12.20;;;7.45;;
66593;SDS011;53450;42.584;23.366;2022-08-20T06:09:10;21.60;;;7.05;;
66593;SDS011;53450;42.584;23.366;2022-08-20T06:11:36;17.17;;;7.32;;
66593;SDS011;53450;42.584;23.366;2022-08-20T06:14:01;15.80;;;7.28;;
66593;SDS011;53450;42.584;23.366;2022-08-20T06:16:27;11.93;;;8.25;;
66593;SDS011;53450;42.584;23.366;2022-08-20T06:18:53;12.68;;;8.13;;
66593;SDS011;53450;42.584;23.366;2022-08-20T06:21:19;14.32;;;8.32;;
66593;SDS011;53450;42.584;23.366;2022-08-20T06:23:44;11.38;;;7.75;;
66593;SDS011;53450;42.584;23.366;2022-08-20T06:26:10;15.20;;;8.40;;
66593;SDS011;53450;42.584;23.366;2022-08-20T06:28:35;13.45;;;8.38;;
66593;SDS011;53450;42.584;23.366;2022-08-20T06:31:01;16.50;;;8.55;;
66593;SDS011;53450;42.584;23.366;2022-08-20T06:33:27;13.07;;;8.30;;
66593;SDS011;53450;42.584;23.366;2022-08-20T06:35:53;16.38;;;8.10;;
66593;SDS011;53450;42.584;23.366;2022-08-20T06:38:19;14.73;;;8.30;;
66593;SDS011;53450;42.584;23.366;2022-08-20T06:40:45;20.92;;;8.98;;
66593;SDS011;53450;42.584;23.366;2022-08-20T06:43:11;11.98;;;8.35;;
66593;SDS011;53450;42.584;23.366;2022-08-20T06:45:37;16.92;;;8.65;;
66593;SDS011;53450;42.584;23.366;2022-08-20T06:48:09;13.93;;;8.25;;
66593;SDS011;53450;42.584;23.366;2022-08-20T06:50:38;53.70;;;10.15;;
66593;SDS011;53450;42.584;23.366;2022-08-20T06:53:07;16.05;;;8.90;;
66593;SDS011;53450;42.584;23.366;2022-08-20T06:55:34;10.57;;;8.45;;
66593;SDS011;53450;42.584;23.366;2022-08-20T06:58:03;15.57;;;8.48;;
66593;SDS011;53450;42.584;23.366;2022-08-20T07:00:34;15.10;;;8.30;;
66593;SDS011;53450;42.584;23.366;2022-08-20T07:03:02;14.70;;;8.70;;
66593;SDS011;53450;42.584;23.366;2022-08-20T07:05:30;13.68;;;8.52;;
66593;SDS011;53450;42.584;23.366;2022-08-20T07:07:58;16.15;;;8.93;;
66593;SDS011;53450;42.584;23.366;2022-08-20T07:10:25;14.02;;;8.25;;
66593;SDS011;53450;42.584;23.366;2022-08-20T07:12:52;16.08;;;9.77;;
66593;SDS011;53450;42.584;23.366;2022-08-20T07:15:19;39.35;;;9.43;;
66593;SDS011;53450;42.584;23.366;2022-08-20T07:17:48;19.10;;;9.10;;
66593;SDS011;53450;42.584;23.366;2022-08-20T07:20:18;18.88;;;9.30;;
66593;SDS011;53450;42.584;23.366;2022-08-20T07:22:45;14.10;;;8.60;;
66593;SDS011;53450;42.584;23.366;2022-08-20T07:25:13;17.83;;;9.05;;
66593;SDS011;53450;42.584;23.366;2022-08-20T07:27:41;48.58;;;10.52;;
66593;SDS011;53450;42.584;23.366;2022-08-20T07:30:09;15.38;;;9.00;;
66593;SDS011;53450;42.584;23.366;2022-08-20T07:32:55;18.63;;;9.30;;
66593;SDS011;53450;42.584;23.366;2022-08-20T07:35:21;11.30;;;9.25;;
66593;SDS011;53450;42.584;23.366;2022-08-20T07:38:13;14.13;;;9.35;;
66593;SDS011;53450;42.584;23.366;2022-08-20T07:40:42;13.52;;;9.93;;
66593;SDS011;53450;42.584;23.366;2022-08-20T07:43:08;15.23;;;9.52;;
66593;SDS011;53450;42.584;23.366;2022-08-20T07:45:34;14.82;;;9.13;;
66593;SDS011;53450;42.584;23.366;2022-08-20T07:48:11;12.63;;;9.10;;
66593;SDS011;53450;42.584;23.366;2022-08-20T07:50:38;12.85;;;8.70;;
66593;SDS011;53450;42.584;23.366;2022-08-20T07:53:05;10.82;;;8.13;;
66593;SDS011;53450;42.584;23.366;2022-08-20T07:55:31;16.35;;;8.73;;
66593;SDS011;53450;42.584;23.366;2022-08-20T07:57:57;19.77;;;9.32;;
66593;SDS011;53450;42.584;23.366;2022-08-20T08:00:30;20.33;;;8.82;;
66593;SDS011;53450;42.584;23.366;2022-08-20T08:02:56;11.60;;;8.35;;
66593;SDS011;53450;42.584;23.366;2022-08-20T08:05:22;15.18;;;8.73;;
66593;SDS011;53450;42.584;23.366;2022-08-20T08:07:48;13.02;;;8.55;;
66593;SDS011;53450;42.584;23.366;2022-08-20T08:10:16;12.90;;;8.40;;
66593;SDS011;53450;42.584;23.366;2022-08-20T08:12:45;14.63;;;8.98;;
66593;SDS011;53450;42.584;23.366;2022-08-20T08:15:16;16.57;;;8.80;;
66593;SDS011;53450;42.584;23.366;2022-08-20T08:17:46;10.57;;;8.68;;
66593;SDS011;53450;42.584;23.366;2022-08-20T08:20:14;17.13;;;8.52;;
66593;SDS011;53450;42.584;23.366;2022-08-20T08:22:41;18.25;;;8.75;;
66593;SDS011;53450;42.584;23.366;2022-08-20T08:25:10;20.10;;;8.38;;
66593;SDS011;53450;42.584;23.366;2022-08-20T08:27:37;14.70;;;8.70;;
66593;SDS011;53450;42.584;23.366;2022-08-20T08:30:03;15.40;;;8.90;;
66593;SDS011;53450;42.584;23.366;2022-08-20T08:32:30;16.23;;;8.60;;
66593;SDS011;53450;42.584;23.366;2022-08-20T08:34:56;20.55;;;8.88;;
66593;SDS011;53450;42.584;23.366;2022-08-20T08:37:23;14.10;;;8.30;;
66593;SDS011;53450;42.584;23.366;2022-08-20T08:40:14;17.60;;;8.68;;
66593;SDS011;53450;42.584;23.366;2022-08-20T08:42:42;18.92;;;8.82;;
66593;SDS011;53450;42.584;23.366;2022-08-20T08:45:12;19.10;;;8.38;;
66593;SDS011;53450;42.584;23.366;2022-08-20T08:47:41;17.00;;;8.50;;
66593;SDS011;53450;42.584;23.366;2022-08-20T08:50:09;10.73;;;8.52;;
66593;SDS011;53450;42.584;23.366;2022-08-20T08:52:46;12.57;;;8.68;;
66593;SDS011;53450;42.584;23.366;2022-08-20T08:55:16;16.48;;;8.20;;
66593;SDS011;53450;42.584;23.366;2022-08-20T08:57:45;13.68;;;8.30;;
66593;SDS011;53450;42.584;23.366;2022-08-20T09:00:15;11.25;;;8.05;;
66593;SDS011;53450;42.584;23.366;2022-08-20T09:02:56;20.75;;;8.82;;
66593;SDS011;53450;42.584;23.366;2022-08-20T09:05:26;25.63;;;9.35;;
66593;SDS011;53450;42.584;23.366;2022-08-20T09:07:56;10.85;;;8.57;;
66593;SDS011;53450;42.584;23.366;2022-08-20T09:10:23;13.27;;;9.02;;
66593;SDS011;53450;42.584;23.366;2022-08-20T09:12:49;17.02;;;8.77;;
66593;SDS011;53450;42.584;23.366;2022-08-20T09:15:16;12.75;;;9.25;;
66593;SDS011;53450;42.584;23.366;2022-08-20T09:17:41;10.50;;;8.30;;
66593;SDS011;53450;42.584;23.366;2022-08-20T09:20:07;11.65;;;8.52;;
66593;SDS011;53450;42.584;23.366;2022-08-20T09:22:34;19.55;;;8.70;;
66593;SDS011;53450;42.584;23.366;2022-08-20T09:25:00;25.15;;;9.00;;
66593;SDS011;53450;42.584;23.366;2022-08-20T09:27:27;10.25;;;8.63;;
66593;SDS011;53450;42.584;23.366;2022-08-20T09:29:53;11.30;;;8.00;;
66593;SDS011;53450;42.584;23.366;2022-08-20T09:32:20;13.55;;;8.10;;
66593;SDS011;53450;42.584;23.366;2022-08-20T09:34:49;13.95;;;8.60;;
66593;SDS011;53450;42.584;23.366;2022-08-20T09:37:20;14.95;;;8.48;;
66593;SDS011;53450;42.584;23.366;2022-08-20T09:39:46;11.45;;;8.30;;
66593;SDS011;53450;42.584;23.366;2022-08-20T09:42:13;13.00;;;8.48;;
66593;SDS011;53450;42.584;23.366;2022-08-20T09:44:44;17.30;;;9.18;;
66593;SDS011;53450;42.584;23.366;2022-08-20T09:47:10;11.45;;;8.35;;
66593;SDS011;53450;42.584;23.366;2022-08-20T09:49:37;12.50;;;8.57;;
66593;SDS011;53450;42.584;23.366;2022-08-20T09:52:04;21.35;;;8.68;;
66593;SDS011;53450;42.584;23.366;2022-08-20T09:54:31;17.65;;;8.35;;
66593;SDS011;53450;42.584;23.366;2022-08-20T09:57:03;15.13;;;8.85;;
66593;SDS011;53450;42.584;23.366;2022-08-20T09:59:31;12.05;;;8.05;;
66593;SDS011;53450;42.584;23.366;2022-08-20T10:01:58;16.25;;;8.20;;
66593;SDS011;53450;42.584;23.366;2022-08-20T10:04:23;13.32;;;7.78;;
66593;SDS011;53450;42.584;23.366;2022-08-20T10:06:49;14.55;;;8.57;;
66593;SDS011;53450;42.584;23.366;2022-08-20T10:09:15;17.20;;;8.23;;
66593;SDS011;53450;42.584;23.366;2022-08-20T10:11:40;13.90;;;9.05;;
66593;SDS011;53450;42.584;23.366;2022-08-20T10:14:06;9.23;;;7.95;;
66593;SDS011;53450;42.584;23.366;2022-08-20T10:16:33;12.82;;;7.80;;
66593;SDS011;53450;42.584;23.366;2022-08-20T10:18:59;13.63;;;8.13;;
66593;SDS011;53450;42.584;23.366;2022-08-20T10:21:25;9.48;;;7.60;;
66593;SDS011;53450;42.584;23.366;2022-08-20T10:23:51;15.15;;;7.97;;
66593;SDS011;53450;42.584;23.366;2022-08-20T10:26:16;16.20;;;7.63;;
66593;SDS011;53450;42.584;23.366;2022-08-20T10:28:42;12.23;;;7.75;;
66593;SDS011;53450;42.584;23.366;2022-08-20T10:31:09;12.68;;;8.15;;
66593;SDS011;53450;42.584;23.366;2022-08-20T10:33:35;13.73;;;7.50;;
66593;SDS011;53450;42.584;23.366;2022-08-20T10:36:06;11.10;;;7.80;;
66593;SDS011;53450;42.584;23.366;2022-08-20T10:38:31;16.63;;;7.82;;
66593;SDS011;53450;42.584;23.366;2022-08-20T10:40:57;9.63;;;7.47;;
66593;SDS011;53450;42.584;23.366;2022-08-20T10:43:23;9.45;;;7.70;;
66593;SDS011;53450;42.584;23.366;2022-08-20T10:45:49;11.63;;;7.95;;
66593;SDS011;53450;42.584;23.366;2022-08-20T10:48:15;18.88;;;7.57;;
66593;SDS011;53450;42.584;23.366;2022-08-20T10:50:40;13.50;;;7.72;;
66593;SDS011;53450;42.584;23.366;2022-08-20T10:53:06;23.67;;;7.95;;
66593;SDS011;53450;42.584;23.366;2022-08-20T10:55:31;9.95;;;7.25;;
66593;SDS011;53450;42.584;23.366;2022-08-20T10:57:57;11.18;;;8.00;;
66593;SDS011;53450;42.584;23.366;2022-08-20T11:00:22;10.50;;;8.77;;
66593;SDS011;53450;42.584;23.366;2022-08-20T11:02:48;10.85;;;7.70;;
66593;SDS011;53450;42.584;23.366;2022-08-20T11:05:39;8.32;;;7.40;;
66593;SDS011;53450;42.584;23.366;2022-08-20T11:08:05;13.35;;;7.90;;
66593;SDS011;53450;42.584;23.366;2022-08-20T11:10:31;8.20;;;7.20;;
66593;SDS011;53450;42.584;23.366;2022-08-20T11:12:59;15.43;;;6.88;;
66593;SDS011;53450;42.584;23.366;2022-08-20T11:15:51;12.93;;;7.28;;
66593;SDS011;53450;42.584;23.366;2022-08-20T11:18:17;9.20;;;7.28;;
66593;SDS011;53450;42.584;23.366;2022-08-20T11:20:42;14.43;;;7.65;;
66593;SDS011;53450;42.584;23.366;2022-08-20T11:23:08;16.77;;;7.68;;
66593;SDS011;53450;42.584;23.366;2022-08-20T11:25:33;10.65;;;7.20;;
66593;SDS011;53450;42.584;23.366;2022-08-20T11:27:59;13.18;;;7.18;;
66593;SDS011;53450;42.584;23.366;2022-08-20T11:30:26;12.98;;;7.35;;
66593;SDS011;53450;42.584;23.366;2022-08-20T11:33:20;8.45;;;6.75;;
66593;SDS011;53450;42.584;23.366;2022-08-20T11:38:36;17.17;;;7.20;;
66593;SDS011;53450;42.584;23.366;2022-08-20T11:41:01;11.25;;;7.55;;
66593;SDS011;53450;42.584;23.366;2022-08-20T11:43:53;11.23;;;7.40;;
66593;SDS011;53450;42.584;23.366;2022-08-20T11:46:18;11.48;;;7.85;;
66593;SDS011;53450;42.584;23.366;2022-08-20T11:48:44;11.38;;;7.85;;
66593;SDS011;53450;42.584;23.366;2022-08-20T11:51:10;9.18;;;7.28;;
66593;SDS011;53450;42.584;23.366;2022-08-20T11:53:35;9.07;;;7.38;;
66593;SDS011;53450;42.584;23.366;2022-08-20T11:56:01;15.52;;;8.05;;
66593;SDS011;53450;42.584;23.366;2022-08-20T11:58:27;14.98;;;9.85;;
66593;SDS011;53450;42.584;23.366;2022-08-20T12:00:52;11.18;;;8.40;;
66593;SDS011;53450;42.584;23.366;2022-08-20T12:03:18;17.98;;;9.90;;
66593;SDS011;53450;42.584;23.366;2022-08-20T12:05:44;17.23;;;7.63;;
66593;SDS011;53450;42.584;23.366;2022-08-20T12:08:11;17.73;;;9.38;;
66593;SDS011;53450;42.584;23.366;2022-08-20T12:10:38;20.85;;;13.35;;
66593;SDS011;53450;42.584;23.366;2022-08-20T12:13:04;11.95;;;8.13;;
66593;SDS011;53450;42.584;23.366;2022-08-20T12:15:34;11.98;;;8.07;;
66593;SDS011;53450;42.584;23.366;2022-08-20T12:18:04;13.63;;;7.47;;
66593;SDS011;53450;42.584;23.366;2022-08-20T12:20:31;11.65;;;7.30;;
66593;SDS011;53450;42.584;23.366;2022-08-20T12:22:57;11.48;;;7.50;;
66593;SDS011;53450;42.584;23.366;2022-08-20T12:25:23;15.57;;;8.27;;
66593;SDS011;53450;42.584;23.366;2022-08-20T12:27:49;61.20;;;11.15;;
66593;SDS011;53450;42.584;23.366;2022-08-20T12:30:16;72.47;;;13.52;;
66593;SDS011;53450;42.584;23.366;2022-08-20T12:32:44;29.77;;;11.52;;
66593;SDS011;53450;42.584;23.366;2022-08-20T12:35:10;27.05;;;12.57;;
66593;SDS011;53450;42.584;23.366;2022-08-20T12:37:37;16.42;;;12.55;;
66593;SDS011;53450;42.584;23.366;2022-08-20T12:40:05;29.50;;;20.25;;
66593;SDS011;53450;42.584;23.366;2022-08-20T12:42:35;22.23;;;15.48;;
66593;SDS011;53450;42.584;23.366;2022-08-20T12:45:00;20.52;;;14.52;;
66593;SDS011;53450;42.584;23.366;2022-08-20T12:47:28;19.52;;;11.95;;
66593;SDS011;53450;42.584;23.366;2022-08-20T12:49:56;21.45;;;13.30;;
66593;SDS011;53450;42.584;23.366;2022-08-20T12:52:25;22.33;;;13.52;;
66593;SDS011;53450;42.584;23.366;2022-08-20T12:54:52;16.85;;;12.48;;
66593;SDS011;53450;42.584;23.366;2022-08-20T13:00:04;24.45;;;16.00;;
66593;SDS011;53450;42.584;23.366;2022-08-20T13:02:40;25.23;;;13.05;;
66593;SDS011;53450;42.584;23.366;2022-08-20T13:05:09;22.92;;;13.02;;
66593;SDS011;53450;42.584;23.366;2022-08-20T13:07:37;16.70;;;11.43;;
66593;SDS011;53450;42.584;23.366;2022-08-20T13:10:04;18.02;;;11.82;;
66593;SDS011;53450;42.584;23.366;2022-08-20T13:12:31;22.08;;;11.93;;
66593;SDS011;53450;42.584;23.366;2022-08-20T13:14:56;22.98;;;10.23;;
66593;SDS011;53450;42.584;23.366;2022-08-20T13:17:22;18.58;;;11.45;;
66593;SDS011;53450;42.584;23.366;2022-08-20T13:19:48;19.63;;;10.52;;
66593;SDS011;53450;42.584;23.366;2022-08-20T13:22:13;14.70;;;11.10;;
66593;SDS011;53450;42.584;23.366;2022-08-20T13:24:40;15.73;;;11.10;;
66593;SDS011;53450;42.584;23.366;2022-08-20T13:27:07;17.10;;;10.55;;
66593;SDS011;53450;42.584;23.366;2022-08-20T13:29:37;13.90;;;10.68;;
66593;SDS011;53450;42.584;23.366;2022-08-20T13:32:03;13.15;;;9.40;;
66593;SDS011;53450;42.584;23.366;2022-08-20T13:34:29;14.13;;;9.82;;
66593;SDS011;53450;42.584;23.366;2022-08-20T13:36:55;14.75;;;11.05;;
66593;SDS011;53450;42.584;23.366;2022-08-20T13:39:21;22.52;;;10.95;;
66593;SDS011;53450;42.584;23.366;2022-08-20T13:41:48;16.35;;;10.40;;
66593;SDS011;53450;42.584;23.366;2022-08-20T13:44:13;16.45;;;10.27;;
66593;SDS011;53450;42.584;23.366;2022-08-20T13:46:39;19.20;;;10.82;;
66593;SDS011;53450;42.584;23.366;2022-08-20T13:49:04;27.17;;;13.38;;
66593;SDS011;53450;42.584;23.366;2022-08-20T13:51:30;72.15;;;19.00;;
66593;SDS011;53450;42.584;23.366;2022-08-20T13:53:55;66.35;;;15.57;;
66593;SDS011;53450;42.584;23.366;2022-08-20T13:56:21;38.10;;;15.20;;
66593;SDS011;53450;42.584;23.366;2022-08-20T13:58:47;37.70;;;17.00;;
66593;SDS011;53450;42.584;23.366;2022-08-20T14:01:13;31.38;;;16.20;;
66593;SDS011;53450;42.584;23.366;2022-08-20T14:03:39;30.17;;;16.20;;
66593;SDS011;53450;42.584;23.366;2022-08-20T14:06:05;26.67;;;14.90;;
66593;SDS011;53450;42.584;23.366;2022-08-20T14:08:32;29.95;;;14.10;;
66593;SDS011;53450;42.584;23.366;2022-08-20T14:10:58;24.88;;;14.68;;
66593;SDS011;53450;42.584;23.366;2022-08-20T14:13:24;26.80;;;14.98;;
66593;SDS011;53450;42.584;23.366;2022-08-20T14:15:51;24.60;;;17.20;;
66593;SDS011;53450;42.584;23.366;2022-08-20T14:18:16;23.25;;;14.77;;
66593;SDS011;53450;42.584;23.366;2022-08-20T14:20:43;24.23;;;15.57;;
66593;SDS011;53450;42.584;23.366;2022-08-20T14:23:09;22.48;;;15.88;;
66593;SDS011;53450;42.584;23.366;2022-08-20T14:25:34;31.00;;;16.80;;
66593;SDS011;53450;42.584;23.366;2022-08-20T14:30:58;27.55;;;17.02;;
66593;SDS011;53450;42.584;23.366;2022-08-20T14:33:24;22.50;;;14.98;;
66593;SDS011;53450;42.584;23.366;2022-08-20T14:35:49;20.85;;;15.10;;
66593;SDS011;53450;42.584;23.366;2022-08-20T14:38:16;25.15;;;15.55;;
66593;SDS011;53450;42.584;23.366;2022-08-20T14:40:41;28.55;;;16.88;;
66593;SDS011;53450;42.584;23.366;2022-08-20T14:43:07;19.40;;;13.68;;
66593;SDS011;53450;42.584;23.366;2022-08-20T14:45:32;29.42;;;13.98;;